sensor_id;sensor_type;location;lat;lon;timestamp;pressure;altitude;pressure_sealevel;temperature;humidity
32181;BME280;19172;51.504;3.894;2022-09-01T00:00:04;101980.56;;;23.12;69.45
32181;BME280;19172;51.504;3.894;2022-09-01T00:02:33;101983.41;;;22.79;71.19
32181;BME280;19172;51.504;3.894;2022-09-01T00:05:01;101983.16;;;23.15;70.94
32181;BME280;19172;51.504;3.894;2022-09-01T00:07:31;101980.00;;;22.72;70.67
32181;BME280;19172;51.504;3.894;2022-09-01T00:09:59;101977.69;;;23.73;70.77
32181;BME280;19172;51.504;3.894;2022-09-01T00:12:28;101983.03;;;23.48;69.04
32181;BME280;19172;51.504;3.894;2022-09-01T00:14:56;101980.75;;;23.62;70.07
32181;BME280;19172;51.504;3.894;2022-09-01T00:17:26;101983.94;;;23.19;69.51
32181;BME280;19172;51.504;3.894;2022-09-01T00:19:54;101979.56;;;23.15;68.39
32181;BME280;19172;51.504;3.894;2022-09-01T00:22:22;101984.28;;;23.08;69.93
32181;BME280;19172;51.504;3.894;2022-09-01T00:24:49;101979.88;;;23.34;69.47
32181;BME280;19172;51.504;3.894;2022-09-01T00:27:17;101982.78;;;22.98;69.62
32181;BME280;19172;51.504;3.894;2022-09-01T00:29:45;101979.22;;;22.69;71.81
32181;BME280;19172;51.504;3.894;2022-09-01T00:32:13;101973.31;;;22.85;71.08
32181;BME280;19172;51.504;3.894;2022-09-01T00:34:41;101990.03;;;22.67;70.64
32181;BME280;19172;51.504;3.894;2022-09-01T00:37:09;101988.38;;;22.61;72.06
32181;BME280;19172;51.504;3.894;2022-09-01T00:39:37;101987.16;;;22.42;71.29
32181;BME280;19172;51.504;3.894;2022-09-01T00:42:04;101983.41;;;22.79;72.33
32181;BME280;19172;51.504;3.894;2022-09-01T00:44:32;101979.88;;;23.06;71.29
32181;BME280;19172;51.504;3.894;2022-09-01T00:47:01;101978.09;;;22.45;71.63
32181;BME280;19172;51.504;3.894;2022-09-01T00:49:37;101980.47;;;22.86;72.01
32181;BME280;19172;51.504;3.894;2022-09-01T00:52:10;101975.38;;;22.77;72.72
32181;BME280;19172;51.504;3.894;2022-09-01T00:54:48;101966.41;;;23.04;72.59
32181;BME280;19172;51.504;3.894;2022-09-01T00:57:17;101975.91;;;22.57;72.17
32181;BME280;19172;51.504;3.894;2022-09-01T00:59:56;101971.19;;;22.96;72.80
32181;BME280;19172;51.504;3.894;2022-09-01T01:02:25;101966.78;;;23.49;71.28
32181;BME280;19172;51.504;3.894;2022-09-01T01:04:53;101962.69;;;23.08;71.64
32181;BME280;19172;51.504;3.894;2022-09-01T01:07:23;101965.38;;;22.81;71.38
32181;BME280;19172;51.504;3.894;2022-09-01T01:09:51;101962.50;;;22.85;72.40
32181;BME280;19172;51.504;3.894;2022-09-01T01:12:19;101964.28;;;22.86;72.17
32181;BME280;19172;51.504;3.894;2022-09-01T01:14:48;101972.25;;;22.60;73.64
32181;BME280;19172;51.504;3.894;2022-09-01T01:17:20;101967.69;;;22.93;75.90
32181;BME280;19172;51.504;3.894;2022-09-01T01:19:56;101960.69;;;22.87;74.76
32181;BME280;19172;51.504;3.894;2022-09-01T01:25:37;101956.00;;;22.92;75.34
32181;BME280;19172;51.504;3.894;2022-09-01T01:28:26;101962.69;;;22.81;76.56
32181;BME280;19172;51.504;3.894;2022-09-01T01:31:05;101959.41;;;23.27;75.39
32181;BME280;19172;51.504;3.894;2022-09-01T01:33:47;101960.44;;;23.23;74.71
32181;BME280;19172;51.504;3.894;2022-09-01T01:36:20;101954.81;;;23.01;74.61
32181;BME280;19172;51.504;3.894;2022-09-01T01:39:14;101966.69;;;22.66;75.43
32181;BME280;19172;51.504;3.894;2022-09-01T01:41:43;101964.38;;;23.12;75.41
32181;BME280;19172;51.504;3.894;2022-09-01T01:44:20;101959.63;;;22.91;75.20
32181;BME280;19172;51.504;3.894;2022-09-01T01:46:53;101963.56;;;23.37;75.73
32181;BME280;19172;51.504;3.894;2022-09-01T01:49:23;101962.00;;;23.30;74.97
32181;BME280;19172;51.504;3.894;2022-09-01T01:51:52;101957.69;;;22.96;74.70
32181;BME280;19172;51.504;3.894;2022-09-01T01:54:26;101963.25;;;22.61;76.22
32181;BME280;19172;51.504;3.894;2022-09-01T01:56:56;101963.13;;;22.65;78.43
32181;BME280;19172;51.504;3.894;2022-09-01T01:59:25;101965.25;;;22.53;77.66
32181;BME280;19172;51.504;3.894;2022-09-01T02:01:53;101970.34;;;22.33;78.57
32181;BME280;19172;51.504;3.894;2022-09-01T02:04:21;101967.34;;;22.43;78.44
32181;BME280;19172;51.504;3.894;2022-09-01T02:06:51;101960.28;;;22.70;78.80
32181;BME280;19172;51.504;3.894;2022-09-01T02:09:20;101962.72;;;22.48;78.69
32181;BME280;19172;51.504;3.894;2022-09-01T02:11:49;101954.31;;;22.59;80.57
32181;BME280;19172;51.504;3.894;2022-09-01T02:14:24;101961.28;;;22.37;80.58
32181;BME280;19172;51.504;3.894;2022-09-01T02:16:52;101959.44;;;22.37;81.76
32181;BME280;19172;51.504;3.894;2022-09-01T02:19:22;101957.22;;;22.51;81.67
32181;BME280;19172;51.504;3.894;2022-09-01T02:21:50;101949.31;;;22.76;80.07
32181;BME280;19172;51.504;3.894;2022-09-01T02:24:22;101952.75;;;22.50;80.73
32181;BME280;19172;51.504;3.894;2022-09-01T02:26:51;101948.16;;;22.54;81.22
32181;BME280;19172;51.504;3.894;2022-09-01T02:29:22;101944.13;;;22.70;82.06
32181;BME280;19172;51.504;3.894;2022-09-01T02:31:54;101944.56;;;22.53;81.03
32181;BME280;19172;51.504;3.894;2022-09-01T02:34:24;101944.38;;;22.61;81.22
32181;BME280;19172;51.504;3.894;2022-09-01T02:36:56;101941.41;;;22.99;80.29
32181;BME280;19172;51.504;3.894;2022-09-01T02:39:27;101936.72;;;23.04;78.84
32181;BME280;19172;51.504;3.894;2022-09-01T02:41:56;101941.22;;;22.76;78.65
32181;BME280;19172;51.504;3.894;2022-09-01T02:44:27;101943.09;;;22.74;79.91
32181;BME280;19172;51.504;3.894;2022-09-01T02:46:57;101936.09;;;22.96;79.45
32181;BME280;19172;51.504;3.894;2022-09-01T02:49:27;101948.81;;;23.20;79.16
32181;BME280;19172;51.504;3.894;2022-09-01T02:51:58;101943.31;;;23.24;77.41
32181;BME280;19172;51.504;3.894;2022-09-01T02:54:30;101947.31;;;23.10;77.11
32181;BME280;19172;51.504;3.894;2022-09-01T02:57:00;101940.22;;;23.08;76.95
32181;BME280;19172;51.504;3.894;2022-09-01T02:59:28;101940.75;;;22.62;77.97
32181;BME280;19172;51.504;3.894;2022-09-01T03:01:59;101944.94;;;22.41;78.89
32181;BME280;19172;51.504;3.894;2022-09-01T03:04:28;101938.22;;;22.87;80.39
32181;BME280;19172;51.504;3.894;2022-09-01T03:07:04;101938.84;;;22.35;80.74
32181;BME280;19172;51.504;3.894;2022-09-01T03:09:32;101940.31;;;22.77;79.72
32181;BME280;19172;51.504;3.894;2022-09-01T03:12:02;101931.22;;;22.80;80.46
32181;BME280;19172;51.504;3.894;2022-09-01T03:14:29;101930.91;;;22.30;80.41
32181;BME280;19172;51.504;3.894;2022-09-01T03:16:58;101931.44;;;22.74;80.98
32181;BME280;19172;51.504;3.894;2022-09-01T03:19:27;101931.19;;;22.81;79.93
32181;BME280;19172;51.504;3.894;2022-09-01T03:21:58;101932.91;;;22.24;80.91
32181;BME280;19172;51.504;3.894;2022-09-01T03:24:29;101938.41;;;22.19;84.08
32181;BME280;19172;51.504;3.894;2022-09-01T03:26:57;101934.06;;;22.44;82.41
32181;BME280;19172;51.504;3.894;2022-09-01T03:29:25;101936.66;;;22.49;82.52
32181;BME280;19172;51.504;3.894;2022-09-01T03:31:53;101927.84;;;22.73;82.57
32181;BME280;19172;51.504;3.894;2022-09-01T03:34:21;101932.66;;;22.91;81.36
32181;BME280;19172;51.504;3.894;2022-09-01T03:36:52;101929.94;;;22.33;81.20
32181;BME280;19172;51.504;3.894;2022-09-01T03:39:28;101932.28;;;22.45;82.52
32181;BME280;19172;51.504;3.894;2022-09-01T03:41:56;101931.38;;;22.44;82.94
32181;BME280;19172;51.504;3.894;2022-09-01T03:44:26;101937.75;;;22.42;83.32
32181;BME280;19172;51.504;3.894;2022-09-01T03:46:54;101931.38;;;22.44;82.85
32181;BME280;19172;51.504;3.894;2022-09-01T03:49:22;101933.00;;;22.21;83.45
32181;BME280;19172;51.504;3.894;2022-09-01T03:51:56;101930.63;;;21.75;83.65
32181;BME280;19172;51.504;3.894;2022-09-01T03:54:26;101933.63;;;22.30;84.53
32181;BME280;19172;51.504;3.894;2022-09-01T03:56:57;101925.75;;;21.90;84.80
32181;BME280;19172;51.504;3.894;2022-09-01T03:59:27;101926.56;;;21.58;85.95
32181;BME280;19172;51.504;3.894;2022-09-01T04:01:56;101924.84;;;21.90;86.24
32181;BME280;19172;51.504;3.894;2022-09-01T04:04:25;101927.59;;;22.21;85.26
32181;BME280;19172;51.504;3.894;2022-09-01T04:06:53;101916.84;;;21.53;86.07
32181;BME280;19172;51.504;3.894;2022-09-01T04:09:20;101921.91;;;21.99;86.93
32181;BME280;19172;51.504;3.894;2022-09-01T04:11:48;101924.75;;;21.59;86.21
32181;BME280;19172;51.504;3.894;2022-09-01T04:14:20;101923.72;;;21.64;85.83
32181;BME280;19172;51.504;3.894;2022-09-01T04:16:49;101911.81;;;21.73;86.43
32181;BME280;19172;51.504;3.894;2022-09-01T04:19:36;101917.28;;;21.70;85.52
32181;BME280;19172;51.504;3.894;2022-09-01T04:22:06;101918.22;;;21.69;86.32
32181;BME280;19172;51.504;3.894;2022-09-01T04:24:44;101913.78;;;21.67;86.36
32181;BME280;19172;51.504;3.894;2022-09-01T04:27:14;101921.28;;;21.54;88.31
32181;BME280;19172;51.504;3.894;2022-09-01T04:29:42;101914.09;;;21.56;88.36
32181;BME280;19172;51.504;3.894;2022-09-01T04:32:13;101916.00;;;21.51;88.17
32181;BME280;19172;51.504;3.894;2022-09-01T04:34:45;101920.34;;;20.83;89.00
32181;BME280;19172;51.504;3.894;2022-09-01T04:37:18;101912.00;;;21.32;91.32
32181;BME280;19172;51.504;3.894;2022-09-01T04:39:53;101914.09;;;21.21;89.71
32181;BME280;19172;51.504;3.894;2022-09-01T04:42:26;101903.72;;;21.41;89.17
32181;BME280;19172;51.504;3.894;2022-09-01T04:44:56;101906.41;;;21.41;91.24
32181;BME280;19172;51.504;3.894;2022-09-01T04:47:29;101908.38;;;21.68;90.18
32181;BME280;19172;51.504;3.894;2022-09-01T04:49:58;101910.78;;;21.45;88.18
32181;BME280;19172;51.504;3.894;2022-09-01T04:52:28;101905.84;;;21.28;89.42
32181;BME280;19172;51.504;3.894;2022-09-01T04:54:57;101915.59;;;20.94;90.83
32181;BME280;19172;51.504;3.894;2022-09-01T04:57:25;101908.97;;;21.08;91.45
32181;BME280;19172;51.504;3.894;2022-09-01T04:59:54;101914.06;;;20.82;91.68
32181;BME280;19172;51.504;3.894;2022-09-01T05:02:23;101905.47;;;21.05;92.65
32181;BME280;19172;51.504;3.894;2022-09-01T05:04:53;101901.13;;;20.99;92.38
32181;BME280;19172;51.504;3.894;2022-09-01T05:07:26;101902.34;;;20.86;92.41
32181;BME280;19172;51.504;3.894;2022-09-01T05:09:54;101901.31;;;21.29;90.88
32181;BME280;19172;51.504;3.894;2022-09-01T05:12:42;101901.97;;;21.01;90.99
32181;BME280;19172;51.504;3.894;2022-09-01T05:15:15;101897.28;;;21.46;90.96
32181;BME280;19172;51.504;3.894;2022-09-01T05:17:43;101898.25;;;21.76;89.05
32181;BME280;19172;51.504;3.894;2022-09-01T05:20:11;101901.00;;;20.66;88.83
32181;BME280;19172;51.504;3.894;2022-09-01T05:22:40;101898.38;;;21.02;91.63
32181;BME280;19172;51.504;3.894;2022-09-01T05:25:08;101897.16;;;21.16;91.75
32181;BME280;19172;51.504;3.894;2022-09-01T05:27:44;101899.28;;;20.63;91.21
32181;BME280;19172;51.504;3.894;2022-09-01T05:30:21;101895.63;;;20.67;91.96
32181;BME280;19172;51.504;3.894;2022-09-01T05:32:49;101903.16;;;20.90;92.27
32181;BME280;19172;51.504;3.894;2022-09-01T05:35:19;101901.66;;;20.77;91.75
32181;BME280;19172;51.504;3.894;2022-09-01T05:37:47;101910.94;;;21.00;92.67
32181;BME280;19172;51.504;3.894;2022-09-01T05:40:19;101898.28;;;21.05;90.52
32181;BME280;19172;51.504;3.894;2022-09-01T05:42:47;101900.28;;;21.34;87.77
32181;BME280;19172;51.504;3.894;2022-09-01T05:45:15;101895.72;;;21.38;87.42
32181;BME280;19172;51.504;3.894;2022-09-01T05:47:46;101906.50;;;21.70;86.75
32181;BME280;19172;51.504;3.894;2022-09-01T05:50:15;101896.97;;;21.25;85.80
32181;BME280;19172;51.504;3.894;2022-09-01T05:52:46;101901.94;;;21.40;86.39
32181;BME280;19172;51.504;3.894;2022-09-01T05:55:15;101902.34;;;21.58;85.61
32181;BME280;19172;51.504;3.894;2022-09-01T05:57:43;101905.56;;;21.00;85.00
32181;BME280;19172;51.504;3.894;2022-09-01T06:00:14;101900.41;;;21.30;87.97
32181;BME280;19172;51.504;3.894;2022-09-01T06:02:47;101898.19;;;21.12;86.91
32181;BME280;19172;51.504;3.894;2022-09-01T06:05:19;101896.09;;;21.23;86.00
32181;BME280;19172;51.504;3.894;2022-09-01T06:07:50;101894.91;;;21.68;85.75
32181;BME280;19172;51.504;3.894;2022-09-01T06:10:18;101898.44;;;21.70;84.67
32181;BME280;19172;51.504;3.894;2022-09-01T06:12:46;101899.34;;;22.04;83.53
32181;BME280;19172;51.504;3.894;2022-09-01T06:15:16;101894.91;;;21.68;82.02
32181;BME280;19172;51.504;3.894;2022-09-01T06:17:49;101893.38;;;22.53;80.39
32181;BME280;19172;51.504;3.894;2022-09-01T06:20:17;101904.81;;;22.01;76.99
32181;BME280;19172;51.504;3.894;2022-09-01T06:22:46;101903.03;;;22.00;76.82
32181;BME280;19172;51.504;3.894;2022-09-01T06:25:15;101905.25;;;22.77;76.97
32181;BME280;19172;51.504;3.894;2022-09-01T06:27:47;101904.66;;;22.06;73.47
32181;BME280;19172;51.504;3.894;2022-09-01T06:30:17;101914.59;;;21.70;76.20
32181;BME280;19172;51.504;3.894;2022-09-01T06:33:05;101919.19;;;22.62;75.88
32181;BME280;19172;51.504;3.894;2022-09-01T06:35:37;101909.75;;;23.58;74.67
32181;BME280;19172;51.504;3.894;2022-09-01T06:38:06;101916.34;;;22.96;73.20
32181;BME280;19172;51.504;3.894;2022-09-01T06:40:46;101926.91;;;23.30;70.26
32181;BME280;19172;51.504;3.894;2022-09-01T06:43:15;101914.66;;;23.47;68.38
32181;BME280;19172;51.504;3.894;2022-09-01T06:45:47;101913.13;;;24.16;65.87
32181;BME280;19172;51.504;3.894;2022-09-01T06:48:22;101917.84;;;24.34;65.03
32181;BME280;19172;51.504;3.894;2022-09-01T06:50:57;101922.44;;;23.56;65.78
32181;BME280;19172;51.504;3.894;2022-09-01T06:53:46;101925.72;;;22.84;67.27
32181;BME280;19172;51.504;3.894;2022-09-01T06:56:29;101920.84;;;23.51;68.81
32181;BME280;19172;51.504;3.894;2022-09-01T06:59:02;101931.53;;;23.80;67.61
32181;BME280;19172;51.504;3.894;2022-09-01T07:01:33;101928.75;;;23.82;66.94
32181;BME280;19172;51.504;3.894;2022-09-01T07:04:02;101930.00;;;23.45;66.07
32181;BME280;19172;51.504;3.894;2022-09-01T07:06:50;101932.66;;;23.73;67.22
32181;BME280;19172;51.504;3.894;2022-09-01T07:09:29;101925.44;;;24.25;66.26
32181;BME280;19172;51.504;3.894;2022-09-01T07:12:17;101931.19;;;23.37;65.94
32181;BME280;19172;51.504;3.894;2022-09-01T07:14:55;101937.50;;;23.90;64.54
32181;BME280;19172;51.504;3.894;2022-09-01T07:17:56;101938.44;;;23.87;67.52
32181;BME280;19172;51.504;3.894;2022-09-01T07:20:27;101928.19;;;23.97;66.85
32181;BME280;19172;51.504;3.894;2022-09-01T07:22:59;101924.94;;;24.85;65.92
32181;BME280;19172;51.504;3.894;2022-09-01T07:25:31;101933.22;;;24.57;62.67
32181;BME280;19172;51.504;3.894;2022-09-01T07:28:51;101932.53;;;24.27;62.75
32181;BME280;19172;51.504;3.894;2022-09-01T07:31:31;101931.94;;;23.68;65.39
32181;BME280;19172;51.504;3.894;2022-09-01T07:34:18;101929.00;;;24.48;66.07
32181;BME280;19172;51.504;3.894;2022-09-01T07:37:09;101931.56;;;24.76;65.28
32181;BME280;19172;51.504;3.894;2022-09-01T07:39:58;101930.97;;;24.68;64.43
32181;BME280;19172;51.504;3.894;2022-09-01T07:43:17;101928.41;;;23.91;66.06
32181;BME280;19172;51.504;3.894;2022-09-01T07:46:11;101925.38;;;24.96;65.60
32181;BME280;19172;51.504;3.894;2022-09-01T07:49:01;101932.13;;;25.29;63.16
32181;BME280;19172;51.504;3.894;2022-09-01T07:51:50;101935.75;;;24.13;63.76
32181;BME280;19172;51.504;3.894;2022-09-01T07:54:22;101943.03;;;24.35;65.47
32181;BME280;19172;51.504;3.894;2022-09-01T07:56:51;101935.38;;;23.98;65.40
32181;BME280;19172;51.504;3.894;2022-09-01T07:59:22;101943.63;;;23.93;64.41
32181;BME280;19172;51.504;3.894;2022-09-01T08:02:02;101939.31;;;23.63;67.75
32181;BME280;19172;51.504;3.894;2022-09-01T08:04:32;101931.44;;;24.06;66.26
32181;BME280;19172;51.504;3.894;2022-09-01T08:07:01;101937.47;;;24.39;64.62
32181;BME280;19172;51.504;3.894;2022-09-01T08:09:30;101935.06;;;24.78;65.07
32181;BME280;19172;51.504;3.894;2022-09-01T08:12:06;101933.16;;;25.47;63.20
32181;BME280;19172;51.504;3.894;2022-09-01T08:14:40;101933.06;;;25.28;62.46
32181;BME280;19172;51.504;3.894;2022-09-01T08:17:08;101942.72;;;24.67;61.36
32181;BME280;19172;51.504;3.894;2022-09-01T08:19:59;101935.34;;;25.17;61.27
32181;BME280;19172;51.504;3.894;2022-09-01T08:22:45;101935.16;;;26.05;60.40
32181;BME280;19172;51.504;3.894;2022-09-01T08:25:34;101944.78;;;25.28;58.96
32181;BME280;19172;51.504;3.894;2022-09-01T08:28:04;101934.88;;;26.11;58.33
32181;BME280;19172;51.504;3.894;2022-09-01T08:30:33;101940.44;;;26.08;57.08
32181;BME280;19172;51.504;3.894;2022-09-01T08:33:01;101941.03;;;26.16;57.82
32181;BME280;19172;51.504;3.894;2022-09-01T08:35:42;101937.91;;;26.25;57.51
32181;BME280;19172;51.504;3.894;2022-09-01T08:38:11;101935.22;;;26.04;56.06
32181;BME280;19172;51.504;3.894;2022-09-01T08:40:41;101941.25;;;25.70;55.79
32181;BME280;19172;51.504;3.894;2022-09-01T08:43:18;101934.28;;;26.25;56.16
32181;BME280;19172;51.504;3.894;2022-09-01T08:45:53;101930.00;;;26.40;56.66
32181;BME280;19172;51.504;3.894;2022-09-01T08:48:33;101939.03;;;26.59;57.40
32181;BME280;19172;51.504;3.894;2022-09-01T08:51:56;101943.50;;;25.37;56.32
32181;BME280;19172;51.504;3.894;2022-09-01T08:57:36;101937.28;;;25.13;57.38
32181;BME280;19172;51.504;3.894;2022-09-01T09:00:22;101932.03;;;26.73;56.91
32181;BME280;19172;51.504;3.894;2022-09-01T09:09:07;101929.19;;;27.67;53.79
32181;BME280;19172;51.504;3.894;2022-09-01T09:11:36;101938.78;;;27.02;52.78
32181;BME280;19172;51.504;3.894;2022-09-01T09:16:47;101923.31;;;27.40;54.43
32181;BME280;19172;51.504;3.894;2022-09-01T09:19:35;101930.78;;;27.35;53.46
32181;BME280;19172;51.504;3.894;2022-09-01T09:22:06;101933.16;;;26.49;54.01
32181;BME280;19172;51.504;3.894;2022-09-01T09:25:10;101919.38;;;26.54;54.14
32181;BME280;19172;51.504;3.894;2022-09-01T09:27:47;101921.97;;;27.13;53.80
32181;BME280;19172;51.504;3.894;2022-09-01T09:32:59;101917.03;;;26.65;52.61
32181;BME280;19172;51.504;3.894;2022-09-01T09:35:50;101926.56;;;27.29;52.98
32181;BME280;19172;51.504;3.894;2022-09-01T09:38:23;101919.66;;;27.22;52.99
32181;BME280;19172;51.504;3.894;2022-09-01T09:41:19;101925.44;;;26.98;51.38
32181;BME280;19172;51.504;3.894;2022-09-01T09:49:34;101919.50;;;27.08;52.54
32181;BME280;19172;51.504;3.894;2022-09-01T09:55:00;101911.72;;;27.72;51.83
32181;BME280;19172;51.504;3.894;2022-09-01T09:57:38;101914.78;;;27.99;52.12
32181;BME280;19172;51.504;3.894;2022-09-01T10:00:37;101913.75;;;28.02;52.43
32181;BME280;19172;51.504;3.894;2022-09-01T10:03:09;101917.22;;;27.88;52.27
32181;BME280;19172;51.504;3.894;2022-09-01T10:05:47;101909.38;;;28.16;50.18
32181;BME280;19172;51.504;3.894;2022-09-01T10:11:01;101906.19;;;27.91;50.15
32181;BME280;19172;51.504;3.894;2022-09-01T10:13:30;101894.38;;;28.58;49.87
32181;BME280;19172;51.504;3.894;2022-09-01T10:16:02;101899.19;;;28.53;48.58
32181;BME280;19172;51.504;3.894;2022-09-01T10:18:38;101904.41;;;28.73;47.97
32181;BME280;19172;51.504;3.894;2022-09-01T10:21:12;101893.78;;;29.15;48.05
32181;BME280;19172;51.504;3.894;2022-09-01T10:23:41;101894.66;;;28.69;48.40
32181;BME280;19172;51.504;3.894;2022-09-01T10:26:15;101891.66;;;29.20;50.00
32181;BME280;19172;51.504;3.894;2022-09-01T10:28:53;101888.38;;;29.61;47.94
32181;BME280;19172;51.504;3.894;2022-09-01T10:31:24;101887.91;;;30.26;48.09
32181;BME280;19172;51.504;3.894;2022-09-01T10:34:01;101884.94;;;29.27;47.06
32181;BME280;19172;51.504;3.894;2022-09-01T10:36:34;101888.72;;;28.78;48.78
32181;BME280;19172;51.504;3.894;2022-09-01T10:39:09;101888.28;;;28.37;48.10
32181;BME280;19172;51.504;3.894;2022-09-01T10:44:26;101878.44;;;28.34;49.52
32181;BME280;19172;51.504;3.894;2022-09-01T10:47:02;101876.78;;;29.57;48.53
32181;BME280;19172;51.504;3.894;2022-09-01T10:52:00;101869.75;;;30.96;44.98
32181;BME280;19172;51.504;3.894;2022-09-01T10:57:53;101866.56;;;29.31;47.26
32181;BME280;19172;51.504;3.894;2022-09-01T11:06:04;101845.22;;;30.25;44.98
32181;BME280;19172;51.504;3.894;2022-09-01T11:08:45;101853.34;;;29.39;44.92
32181;BME280;19172;51.504;3.894;2022-09-01T11:11:40;101844.09;;;30.43;45.13
32181;BME280;19172;51.504;3.894;2022-09-01T11:17:21;101848.59;;;29.42;44.63
32181;BME280;19172;51.504;3.894;2022-09-01T11:22:25;101839.19;;;29.48;44.95
32181;BME280;19172;51.504;3.894;2022-09-01T11:30:54;101830.00;;;29.49;44.63
32181;BME280;19172;51.504;3.894;2022-09-01T11:33:41;101852.84;;;29.62;44.01
32181;BME280;19172;51.504;3.894;2022-09-01T11:39:02;101844.47;;;28.74;44.37
32181;BME280;19172;51.504;3.894;2022-09-01T11:44:26;101838.22;;;30.50;42.68
32181;BME280;19172;51.504;3.894;2022-09-01T11:47:07;101834.16;;;30.42;42.75
32181;BME280;19172;51.504;3.894;2022-09-01T11:49:57;101838.13;;;30.51;41.70
32181;BME280;19172;51.504;3.894;2022-09-01T11:52:30;101843.38;;;30.26;41.32
32181;BME280;19172;51.504;3.894;2022-09-01T11:54:58;101834.91;;;30.30;41.23
32181;BME280;19172;51.504;3.894;2022-09-01T11:57:33;101835.00;;;30.29;42.49
32181;BME280;19172;51.504;3.894;2022-09-01T12:00:06;101831.22;;;30.86;41.41
32181;BME280;19172;51.504;3.894;2022-09-01T12:02:49;101831.41;;;30.98;40.54
32181;BME280;19172;51.504;3.894;2022-09-01T12:07:56;101832.28;;;30.84;40.33
32181;BME280;19172;51.504;3.894;2022-09-01T12:10:37;101840.56;;;30.56;40.49
32181;BME280;19172;51.504;3.894;2022-09-01T12:13:16;101829.16;;;31.04;40.63
32181;BME280;19172;51.504;3.894;2022-09-01T12:15:53;101836.06;;;30.55;40.76
32181;BME280;19172;51.504;3.894;2022-09-01T12:18:47;101823.59;;;30.91;40.41
32181;BME280;19172;51.504;3.894;2022-09-01T12:21:29;101825.81;;;31.26;40.47
32181;BME280;19172;51.504;3.894;2022-09-01T12:24:16;101823.53;;;30.79;39.72
32181;BME280;19172;51.504;3.894;2022-09-01T12:26:47;101812.41;;;31.09;40.81
32181;BME280;19172;51.504;3.894;2022-09-01T12:29:15;101816.09;;;31.61;39.93
32181;BME280;19172;51.504;3.894;2022-09-01T12:31:47;101822.44;;;30.26;39.39
32181;BME280;19172;51.504;3.894;2022-09-01T12:39:37;101819.41;;;31.00;40.23
32181;BME280;19172;51.504;3.894;2022-09-01T12:53:03;101816.13;;;30.12;41.22
32181;BME280;19172;51.504;3.894;2022-09-01T12:55:58;101808.59;;;31.11;40.34
32181;BME280;19172;51.504;3.894;2022-09-01T12:58:28;101813.34;;;31.74;40.00
32181;BME280;19172;51.504;3.894;2022-09-01T13:01:01;101806.41;;;30.89;39.92
32181;BME280;19172;51.504;3.894;2022-09-01T13:03:31;101816.66;;;31.00;39.13
32181;BME280;19172;51.504;3.894;2022-09-01T13:06:01;101805.72;;;31.27;40.04
32181;BME280;19172;51.504;3.894;2022-09-01T13:08:33;101800.28;;;31.00;39.39
32181;BME280;19172;51.504;3.894;2022-09-01T13:11:03;101805.63;;;30.61;39.22
32181;BME280;19172;51.504;3.894;2022-09-01T13:13:32;101810.66;;;30.81;39.53
32181;BME280;19172;51.504;3.894;2022-09-01T13:16:03;101804.31;;;30.11;39.21
32181;BME280;19172;51.504;3.894;2022-09-01T13:18:38;101810.72;;;31.60;39.22
32181;BME280;19172;51.504;3.894;2022-09-01T13:21:26;101797.81;;;31.87;38.97
32181;BME280;19172;51.504;3.894;2022-09-01T13:23:55;101795.75;;;31.53;38.68
32181;BME280;19172;51.504;3.894;2022-09-01T13:26:24;101791.97;;;32.29;38.06
32181;BME280;19172;51.504;3.894;2022-09-01T13:28:52;101792.22;;;32.26;38.01
32181;BME280;19172;51.504;3.894;2022-09-01T13:31:20;101800.13;;;32.18;38.19
32181;BME280;19172;51.504;3.894;2022-09-01T13:33:58;101797.88;;;32.85;38.20
32181;BME280;19172;51.504;3.894;2022-09-01T13:36:45;101792.72;;;33.04;37.29
32181;BME280;19172;51.504;3.894;2022-09-01T13:39:19;101794.53;;;32.32;36.66
32181;BME280;19172;51.504;3.894;2022-09-01T13:41:48;101792.78;;;31.93;38.04
32181;BME280;19172;51.504;3.894;2022-09-01T13:44:16;101806.25;;;32.22;37.98
32181;BME280;19172;51.504;3.894;2022-09-01T13:46:45;101796.59;;;31.78;37.76
32181;BME280;19172;51.504;3.894;2022-09-01T13:49:33;101789.44;;;32.39;37.75
32181;BME280;19172;51.504;3.894;2022-09-01T13:52:11;101786.22;;;32.09;37.88
32181;BME280;19172;51.504;3.894;2022-09-01T13:54:39;101782.94;;;32.29;37.80
32181;BME280;19172;51.504;3.894;2022-09-01T13:57:07;101777.59;;;32.51;37.93
32181;BME280;19172;51.504;3.894;2022-09-01T13:59:35;101794.66;;;31.55;37.82
32181;BME280;19172;51.504;3.894;2022-09-01T14:02:04;101787.28;;;32.31;37.04
32181;BME280;19172;51.504;3.894;2022-09-01T14:04:32;101786.50;;;31.41;37.85
32181;BME280;19172;51.504;3.894;2022-09-01T14:06:59;101776.00;;;31.47;38.08
32181;BME280;19172;51.504;3.894;2022-09-01T14:09:27;101769.59;;;31.74;37.56
32181;BME280;19172;51.504;3.894;2022-09-01T14:11:55;101777.38;;;31.28;37.14
32181;BME280;19172;51.504;3.894;2022-09-01T14:14:23;101782.19;;;30.30;37.63
32181;BME280;19172;51.504;3.894;2022-09-01T14:16:51;101770.91;;;30.89;37.80
32181;BME280;19172;51.504;3.894;2022-09-01T14:19:20;101769.06;;;31.17;37.17
32181;BME280;19172;51.504;3.894;2022-09-01T14:21:48;101762.94;;;30.60;38.44
32181;BME280;19172;51.504;3.894;2022-09-01T14:24:16;101755.66;;;31.39;38.25
32181;BME280;19172;51.504;3.894;2022-09-01T14:26:47;101763.47;;;30.24;38.09
32181;BME280;19172;51.504;3.894;2022-09-01T14:29:15;101764.94;;;30.43;38.99
32181;BME280;19172;51.504;3.894;2022-09-01T14:31:43;101768.09;;;30.91;38.54
32181;BME280;19172;51.504;3.894;2022-09-01T14:34:11;101755.78;;;30.71;38.32
32181;BME280;19172;51.504;3.894;2022-09-01T14:36:39;101762.00;;;30.47;39.13
32181;BME280;19172;51.504;3.894;2022-09-01T14:39:07;101756.78;;;30.15;40.47
32181;BME280;19172;51.504;3.894;2022-09-01T14:41:35;101748.47;;;30.72;40.52